UAE52M OMDB-EDDF
Flight info
| Callsign | UAE52M |
|---|---|
| Flight time | N/A |
| Altitude | 34000 |
| Route | ANVIX R401 GIDIS G783 RIGIL M628 PEKEM DCT MEDPO/N0501F320 DCT ITRUX/N0495F360 Y511 PMA Z712 WEJ/N0492F380 L677 CVO L617 TANSA/N0487F400 DCT KOR DCT DIMIS DCT KOFER DCT MINTU DCT ROTAR DCT ROKIB DCT SUXAN DCT ARGAX DCT LADOL T163 EMPAX EMPAX5B |
| Aircraft | B77W/H-SDE1E2E3FGHIJ2J3J4J5M1RWXY/LB1D1 |
Departure
| Time | 2026-04-25 13:44 |
|---|---|
| Airport | Dubai International Airport (OMDB) |
Arrival
| Time | N/A |
|---|---|
| Airport | Frankfurt Main Airport (EDDF) |
| Time | Latitude | Longitude | Altitude | Speed | Heading |
|---|---|---|---|---|---|
| 2026-04-25 13:24 | 25.25060 | 55.35983 | 26 ft | 0 kts | 211° |
| 2026-04-25 13:30 | 25.25095 | 55.36006 | 30 ft | 4 kts | 218° |
| 2026-04-25 13:30 | 25.25112 | 55.36026 | 32 ft | 4 kts | 239° |
| 2026-04-25 13:30 | 25.25121 | 55.36050 | 32 ft | 4 kts | 266° |
| 2026-04-25 13:31 | 25.25107 | 55.36100 | 25 ft | 4 kts | 302° |
| 2026-04-25 13:31 | 25.25093 | 55.36125 | 24 ft | 4 kts | 302° |
| 2026-04-25 13:31 | 25.25087 | 55.36135 | 23 ft | 0 kts | 302° |
| 2026-04-25 13:33 | 25.25094 | 55.36122 | 24 ft | 4 kts | 302° |
| 2026-04-25 13:33 | 25.25101 | 55.36111 | 25 ft | 6 kts | 302° |
| 2026-04-25 13:34 | 25.25161 | 55.36004 | 29 ft | 12 kts | 302° |
| 2026-04-25 13:34 | 25.25204 | 55.35928 | 29 ft | 12 kts | 301° |
| 2026-04-25 13:34 | 25.25246 | 55.35851 | 29 ft | 12 kts | 302° |
| 2026-04-25 13:34 | 25.25297 | 55.35761 | 28 ft | 16 kts | 301° |
| 2026-04-25 13:35 | 25.25355 | 55.35658 | 30 ft | 16 kts | 302° |
| 2026-04-25 13:35 | 25.25413 | 55.35555 | 31 ft | 16 kts | 302° |
| 2026-04-25 13:35 | 25.25470 | 55.35453 | 29 ft | 16 kts | 301° |
| 2026-04-25 13:35 | 25.25528 | 55.35350 | 30 ft | 16 kts | 302° |
| 2026-04-25 13:36 | 25.25585 | 55.35247 | 27 ft | 16 kts | 302° |
| 2026-04-25 13:36 | 25.25639 | 55.35164 | 29 ft | 12 kts | 325° |
| 2026-04-25 13:36 | 25.25719 | 55.35175 | 29 ft | 12 kts | 28° |
| 2026-04-25 13:36 | 25.25791 | 55.35223 | 29 ft | 12 kts | 31° |
| 2026-04-25 13:37 | 25.25863 | 55.35271 | 29 ft | 12 kts | 31° |
| 2026-04-25 13:37 | 25.25921 | 55.35310 | 26 ft | 9 kts | 31° |
| 2026-04-25 13:37 | 25.25971 | 55.35351 | 27 ft | 8 kts | 45° |
| 2026-04-25 13:37 | 25.26002 | 55.35407 | 27 ft | 10 kts | 67° |
| 2026-04-25 13:38 | 25.26008 | 55.35498 | 27 ft | 14 kts | 100° |
| 2026-04-25 13:38 | 25.25954 | 55.35619 | 28 ft | 22 kts | 121° |
| 2026-04-25 13:38 | 25.25869 | 55.35770 | 28 ft | 23 kts | 121° |
| 2026-04-25 13:38 | 25.25784 | 55.35922 | 28 ft | 23 kts | 122° |
| 2026-04-25 13:39 | 25.25698 | 55.36074 | 28 ft | 23 kts | 122° |
| 2026-04-25 13:39 | 25.25613 | 55.36226 | 29 ft | 23 kts | 122° |
| 2026-04-25 13:39 | 25.25527 | 55.36378 | 28 ft | 23 kts | 122° |
| 2026-04-25 13:39 | 25.25442 | 55.36530 | 29 ft | 23 kts | 122° |
| 2026-04-25 13:40 | 25.25357 | 55.36682 | 28 ft | 23 kts | 122° |
| 2026-04-25 13:40 | 25.25272 | 55.36834 | 29 ft | 23 kts | 122° |
| 2026-04-25 13:40 | 25.25186 | 55.36985 | 29 ft | 23 kts | 122° |
| 2026-04-25 13:40 | 25.25101 | 55.37137 | 30 ft | 23 kts | 122° |
| 2026-04-25 13:41 | 25.25015 | 55.37289 | 30 ft | 23 kts | 122° |
| 2026-04-25 13:41 | 25.24930 | 55.37440 | 30 ft | 23 kts | 122° |
| 2026-04-25 13:41 | 25.24845 | 55.37592 | 30 ft | 23 kts | 121° |
| 2026-04-25 13:41 | 25.24760 | 55.37744 | 30 ft | 23 kts | 122° |
| 2026-04-25 13:42 | 25.24694 | 55.37862 | 29 ft | 11 kts | 122° |
| 2026-04-25 13:42 | 25.24670 | 55.37927 | 29 ft | 7 kts | 86° |
| 2026-04-25 13:42 | 25.24681 | 55.37950 | 30 ft | 2 kts | 52° |
| 2026-04-25 13:42 | 25.24696 | 55.37966 | 30 ft | 6 kts | 41° |
| 2026-04-25 13:43 | 25.24726 | 55.37990 | 32 ft | 9 kts | 33° |
| 2026-04-25 13:43 | 25.24778 | 55.38024 | 34 ft | 9 kts | 18° |
| 2026-04-25 13:43 | 25.24832 | 55.37982 | 34 ft | 16 kts | 303° |
| 2026-04-25 13:43 | 25.24957 | 55.37756 | 35 ft | 65 kts | 301° |
| 2026-04-25 13:44 | 25.25495 | 55.36789 | 33 ft | 155 kts | 302° |
| 2026-04-25 13:44 | 25.26137 | 55.35643 | 229 ft | 184 kts | 302° |
| 2026-04-25 13:44 | 25.26589 | 55.34829 | 665 ft | 186 kts | 303° |
| 2026-04-25 13:44 | 25.27269 | 55.33598 | 1284 ft | 189 kts | 302° |
| 2026-04-25 13:45 | 25.27963 | 55.32345 | 1728 ft | 194 kts | 303° |
| 2026-04-25 13:45 | 25.28675 | 55.31067 | 2216 ft | 195 kts | 303° |
| 2026-04-25 13:45 | 25.29234 | 55.29702 | 2595 ft | 200 kts | 278° |
| 2026-04-25 13:45 | 25.29020 | 55.28181 | 2971 ft | 206 kts | 249° |
| 2026-04-25 13:46 | 25.28410 | 55.26750 | 3366 ft | 207 kts | 247° |
| 2026-04-25 13:46 | 25.27797 | 55.25310 | 3838 ft | 206 kts | 247° |
| 2026-04-25 13:46 | 25.27190 | 55.23887 | 4322 ft | 204 kts | 246° |
| 2026-04-25 13:46 | 25.26593 | 55.22486 | 4736 ft | 204 kts | 246° |
| 2026-04-25 13:47 | 25.25976 | 55.21040 | 5089 ft | 211 kts | 246° |
| 2026-04-25 13:47 | 25.25324 | 55.19506 | 5228 ft | 229 kts | 246° |
| 2026-04-25 13:47 | 25.24579 | 55.17922 | 5553 ft | 239 kts | 232° |
| 2026-04-25 13:47 | 25.23225 | 55.16842 | 5923 ft | 249 kts | 197° |
| 2026-04-25 13:48 | 25.21469 | 55.16705 | 6283 ft | 259 kts | 178° |
| 2026-04-25 13:48 | 25.19669 | 55.16954 | 6702 ft | 264 kts | 163° |
| 2026-04-25 13:48 | 25.18103 | 55.18036 | 7074 ft | 277 kts | 131° |
| 2026-04-25 13:48 | 25.17096 | 55.19861 | 7321 ft | 289 kts | 117° |
| 2026-04-25 13:49 | 25.16174 | 55.21867 | 7791 ft | 297 kts | 118° |
| 2026-04-25 13:49 | 25.15219 | 55.23896 | 8434 ft | 298 kts | 119° |
| 2026-04-25 13:49 | 25.14255 | 55.25921 | 9127 ft | 298 kts | 119° |
| 2026-04-25 13:49 | 25.13286 | 55.27949 | 9800 ft | 299 kts | 120° |
| 2026-04-25 13:50 | 25.12311 | 55.29982 | 10406 ft | 301 kts | 120° |
| 2026-04-25 13:50 | 25.11322 | 55.32039 | 11012 ft | 304 kts | 120° |
| 2026-04-25 13:50 | 25.10348 | 55.34120 | 11692 ft | 306 kts | 117° |
| 2026-04-25 13:50 | 25.09462 | 55.36265 | 12429 ft | 308 kts | 116° |
| 2026-04-25 13:51 | 25.08587 | 55.38435 | 13176 ft | 311 kts | 116° |
| 2026-04-25 13:51 | 25.07696 | 55.40623 | 13881 ft | 315 kts | 116° |
| 2026-04-25 13:51 | 25.06799 | 55.42850 | 14441 ft | 323 kts | 115° |
| 2026-04-25 13:51 | 25.05889 | 55.45211 | 14622 ft | 347 kts | 115° |
| 2026-04-25 13:52 | 25.04831 | 55.47668 | 14731 ft | 362 kts | 127° |
| 2026-04-25 13:52 | 25.02976 | 55.49598 | 14881 ft | 376 kts | 153° |
| 2026-04-25 13:52 | 25.00475 | 55.50536 | 15048 ft | 385 kts | 171° |
| 2026-04-25 13:52 | 24.97827 | 55.51228 | 15215 ft | 395 kts | 167° |
| 2026-04-25 13:53 | 24.95085 | 55.51662 | 15539 ft | 402 kts | 180° |
| 2026-04-25 13:53 | 24.92289 | 55.51612 | 16236 ft | 403 kts | 183° |
| 2026-04-25 13:53 | 24.89479 | 55.51534 | 16930 ft | 406 kts | 183° |
| 2026-04-25 13:53 | 24.86645 | 55.51451 | 17566 ft | 410 kts | 183° |
| 2026-04-25 13:54 | 24.83779 | 55.51364 | 18183 ft | 414 kts | 184° |
| 2026-04-25 13:54 | 24.80887 | 55.51276 | 18736 ft | 418 kts | 184° |
| 2026-04-25 13:54 | 24.77970 | 55.51187 | 19276 ft | 421 kts | 184° |
| 2026-04-25 13:54 | 24.75025 | 55.51098 | 19822 ft | 425 kts | 184° |
| 2026-04-25 13:55 | 24.72056 | 55.51010 | 20362 ft | 429 kts | 184° |
| 2026-04-25 13:55 | 24.69062 | 55.50922 | 20886 ft | 433 kts | 184° |
| 2026-04-25 13:55 | 24.66035 | 55.50833 | 21407 ft | 437 kts | 184° |
| 2026-04-25 13:55 | 24.62980 | 55.50744 | 21913 ft | 441 kts | 184° |
| 2026-04-25 13:56 | 24.59902 | 55.50655 | 22436 ft | 445 kts | 184° |
| 2026-04-25 13:56 | 24.56792 | 55.50565 | 22930 ft | 449 kts | 184° |
| 2026-04-25 13:56 | 24.53653 | 55.50474 | 23416 ft | 453 kts | 184° |
| 2026-04-25 13:56 | 24.50488 | 55.50381 | 23820 ft | 457 kts | 184° |
| 2026-04-25 13:57 | 24.47303 | 55.50289 | 24234 ft | 460 kts | 184° |
| 2026-04-25 13:57 | 24.45181 | 55.50228 | 24511 ft | 461 kts | 184° |
| 2026-04-25 13:57 | 24.40869 | 55.50104 | 25079 ft | 465 kts | 184° |
| 2026-04-25 13:57 | 24.37627 | 55.50010 | 25492 ft | 468 kts | 184° |
| 2026-04-25 13:58 | 24.34363 | 55.49915 | 25901 ft | 470 kts | 184° |
| 2026-04-25 13:58 | 24.31082 | 55.49821 | 26305 ft | 473 kts | 184° |
| 2026-04-25 13:58 | 24.27784 | 55.49725 | 26709 ft | 475 kts | 184° |
| 2026-04-25 13:58 | 24.24468 | 55.49629 | 27099 ft | 478 kts | 184° |
| 2026-04-25 13:59 | 24.21132 | 55.49533 | 27466 ft | 481 kts | 184° |
| 2026-04-25 13:59 | 24.17776 | 55.49436 | 27828 ft | 484 kts | 184° |
| 2026-04-25 13:59 | 24.14402 | 55.49339 | 28175 ft | 486 kts | 184° |
| 2026-04-25 13:59 | 24.11057 | 55.49243 | 28507 ft | 489 kts | 184° |
| 2026-04-25 14:00 | 24.07597 | 55.49143 | 28833 ft | 491 kts | 184° |
| 2026-04-25 14:00 | 24.04218 | 55.49046 | 29136 ft | 494 kts | 184° |
| 2026-04-25 14:00 | 24.00777 | 55.48947 | 29423 ft | 496 kts | 184° |
| 2026-04-25 14:00 | 23.97315 | 55.48848 | 29715 ft | 498 kts | 184° |
| 2026-04-25 14:01 | 23.93847 | 55.48748 | 30052 ft | 499 kts | 184° |
| 2026-04-25 14:01 | 23.90380 | 55.48649 | 30412 ft | 497 kts | 184° |
| 2026-04-25 14:01 | 23.86932 | 55.48471 | 30799 ft | 495 kts | 188° |
| 2026-04-25 14:01 | 23.83532 | 55.47979 | 31152 ft | 492 kts | 193° |
| 2026-04-25 14:02 | 23.80212 | 55.47129 | 31482 ft | 489 kts | 198° |
| 2026-04-25 14:02 | 23.76939 | 55.46118 | 31803 ft | 489 kts | 198° |
| 2026-04-25 14:02 | 23.73671 | 55.45103 | 32127 ft | 488 kts | 198° |
| 2026-04-25 14:02 | 23.72566 | 55.44763 | 32238 ft | 488 kts | 198° |
| 2026-04-25 14:03 | 23.67134 | 55.43116 | 32798 ft | 487 kts | 198° |
| 2026-04-25 14:03 | 23.63869 | 55.42142 | 33125 ft | 486 kts | 198° |
| 2026-04-25 14:03 | 23.60606 | 55.41174 | 33419 ft | 486 kts | 198° |
| 2026-04-25 14:03 | 23.57343 | 55.40206 | 33709 ft | 486 kts | 198° |
| 2026-04-25 14:04 | 23.54068 | 55.39234 | 33829 ft | 490 kts | 198° |
| 2026-04-25 14:04 | 23.47475 | 55.37281 | 33869 ft | 491 kts | 198° |
| 2026-04-25 14:05 | 23.40917 | 55.35355 | 33875 ft | 487 kts | 198° |
| 2026-04-25 14:05 | 23.34499 | 55.33165 | 33859 ft | 477 kts | 213° |
| 2026-04-25 14:05 | 23.31906 | 55.30991 | 33883 ft | 469 kts | 230° |
| 2026-04-25 14:06 | 23.29975 | 55.28162 | 33874 ft | 465 kts | 243° |